sensor_id;sensor_type;location;lat;lon;timestamp;P1;durP1;ratioP1;P2;durP2;ratioP2
12691;SDS011;6410;57.636;18.304;2022-07-17T00:00:17;7.78;;;7.47;;
12691;SDS011;6410;57.636;18.304;2022-07-17T00:02:47;7.38;;;7.18;;
12691;SDS011;6410;57.636;18.304;2022-07-17T00:05:16;6.97;;;6.78;;
12691;SDS011;6410;57.636;18.304;2022-07-17T00:07:44;7.43;;;7.10;;
12691;SDS011;6410;57.636;18.304;2022-07-17T00:10:15;7.25;;;7.05;;
12691;SDS011;6410;57.636;18.304;2022-07-17T00:12:43;6.47;;;6.28;;
12691;SDS011;6410;57.636;18.304;2022-07-17T00:15:12;6.72;;;6.43;;
12691;SDS011;6410;57.636;18.304;2022-07-17T00:17:40;6.63;;;6.38;;
12691;SDS011;6410;57.636;18.304;2022-07-17T00:20:11;7.15;;;6.85;;
12691;SDS011;6410;57.636;18.304;2022-07-17T00:22:40;7.78;;;7.47;;
12691;SDS011;6410;57.636;18.304;2022-07-17T00:25:09;7.65;;;7.25;;
12691;SDS011;6410;57.636;18.304;2022-07-17T00:27:38;7.60;;;7.30;;
12691;SDS011;6410;57.636;18.304;2022-07-17T00:30:07;7.88;;;7.57;;
12691;SDS011;6410;57.636;18.304;2022-07-17T00:32:35;7.80;;;7.50;;
12691;SDS011;6410;57.636;18.304;2022-07-17T00:35:04;7.88;;;7.60;;
12691;SDS011;6410;57.636;18.304;2022-07-17T00:37:38;8.15;;;7.85;;
12691;SDS011;6410;57.636;18.304;2022-07-17T00:40:09;8.52;;;8.23;;
12691;SDS011;6410;57.636;18.304;2022-07-17T00:42:42;8.07;;;7.78;;
12691;SDS011;6410;57.636;18.304;2022-07-17T00:45:11;8.07;;;7.78;;
12691;SDS011;6410;57.636;18.304;2022-07-17T00:47:48;8.95;;;8.43;;
12691;SDS011;6410;57.636;18.304;2022-07-17T00:50:17;7.68;;;7.38;;
12691;SDS011;6410;57.636;18.304;2022-07-17T00:52:47;7.65;;;7.35;;
12691;SDS011;6410;57.636;18.304;2022-07-17T00:55:16;7.32;;;7.03;;
12691;SDS011;6410;57.636;18.304;2022-07-17T00:58:04;8.27;;;7.88;;
12691;SDS011;6410;57.636;18.304;2022-07-17T01:00:33;7.30;;;7.00;;
12691;SDS011;6410;57.636;18.304;2022-07-17T01:03:02;7.65;;;7.35;;
12691;SDS011;6410;57.636;18.304;2022-07-17T01:05:31;7.82;;;7.53;;
12691;SDS011;6410;57.636;18.304;2022-07-17T01:08:01;8.13;;;7.82;;
12691;SDS011;6410;57.636;18.304;2022-07-17T01:10:29;7.80;;;7.50;;
12691;SDS011;6410;57.636;18.304;2022-07-17T01:12:58;8.50;;;8.20;;
12691;SDS011;6410;57.636;18.304;2022-07-17T01:15:30;7.57;;;7.28;;
12691;SDS011;6410;57.636;18.304;2022-07-17T01:17:59;8.75;;;8.35;;
12691;SDS011;6410;57.636;18.304;2022-07-17T01:20:27;8.38;;;7.97;;
12691;SDS011;6410;57.636;18.304;2022-07-17T01:22:57;7.88;;;7.53;;
12691;SDS011;6410;57.636;18.304;2022-07-17T01:25:26;8.30;;;8.00;;
12691;SDS011;6410;57.636;18.304;2022-07-17T01:27:54;8.18;;;7.88;;
12691;SDS011;6410;57.636;18.304;2022-07-17T01:30:23;7.95;;;7.65;;
12691;SDS011;6410;57.636;18.304;2022-07-17T01:32:52;8.43;;;8.13;;
12691;SDS011;6410;57.636;18.304;2022-07-17T01:35:21;8.23;;;7.93;;
12691;SDS011;6410;57.636;18.304;2022-07-17T01:37:49;7.70;;;7.40;;
12691;SDS011;6410;57.636;18.304;2022-07-17T01:40:19;7.57;;;7.28;;
12691;SDS011;6410;57.636;18.304;2022-07-17T01:42:49;7.93;;;7.63;;
12691;SDS011;6410;57.636;18.304;2022-07-17T01:45:18;7.50;;;7.30;;
12691;SDS011;6410;57.636;18.304;2022-07-17T01:47:47;8.23;;;7.93;;
12691;SDS011;6410;57.636;18.304;2022-07-17T01:50:15;8.02;;;7.72;;
12691;SDS011;6410;57.636;18.304;2022-07-17T01:52:44;7.88;;;7.57;;
12691;SDS011;6410;57.636;18.304;2022-07-17T01:55:13;8.30;;;8.00;;
12691;SDS011;6410;57.636;18.304;2022-07-17T01:57:44;7.95;;;7.63;;
12691;SDS011;6410;57.636;18.304;2022-07-17T02:00:14;8.45;;;8.10;;
12691;SDS011;6410;57.636;18.304;2022-07-17T02:02:43;8.40;;;8.00;;
12691;SDS011;6410;57.636;18.304;2022-07-17T02:05:12;8.60;;;8.20;;
12691;SDS011;6410;57.636;18.304;2022-07-17T02:07:41;8.15;;;7.85;;
12691;SDS011;6410;57.636;18.304;2022-07-17T02:10:11;8.18;;;7.88;;
12691;SDS011;6410;57.636;18.304;2022-07-17T02:12:41;8.15;;;7.68;;
12691;SDS011;6410;57.636;18.304;2022-07-17T02:15:11;7.63;;;7.32;;
12691;SDS011;6410;57.636;18.304;2022-07-17T02:17:40;7.50;;;7.20;;
12691;SDS011;6410;57.636;18.304;2022-07-17T02:20:09;7.20;;;7.00;;
12691;SDS011;6410;57.636;18.304;2022-07-17T02:22:38;7.20;;;7.00;;
12691;SDS011;6410;57.636;18.304;2022-07-17T02:25:08;6.90;;;6.60;;
12691;SDS011;6410;57.636;18.304;2022-07-17T02:27:37;7.65;;;7.22;;
12691;SDS011;6410;57.636;18.304;2022-07-17T02:30:07;8.43;;;8.02;;
12691;SDS011;6410;57.636;18.304;2022-07-17T02:32:38;8.68;;;8.27;;
12691;SDS011;6410;57.636;18.304;2022-07-17T02:35:07;9.18;;;8.60;;
12691;SDS011;6410;57.636;18.304;2022-07-17T02:37:36;7.97;;;7.68;;
12691;SDS011;6410;57.636;18.304;2022-07-17T02:40:05;8.43;;;8.13;;
12691;SDS011;6410;57.636;18.304;2022-07-17T02:42:34;8.38;;;8.07;;
12691;SDS011;6410;57.636;18.304;2022-07-17T02:45:03;8.10;;;7.80;;
12691;SDS011;6410;57.636;18.304;2022-07-17T02:47:36;7.57;;;7.28;;
12691;SDS011;6410;57.636;18.304;2022-07-17T02:50:06;6.55;;;6.35;;
12691;SDS011;6410;57.636;18.304;2022-07-17T02:52:35;7.15;;;6.93;;
12691;SDS011;6410;57.636;18.304;2022-07-17T02:55:04;7.20;;;7.00;;
12691;SDS011;6410;57.636;18.304;2022-07-17T02:57:33;6.88;;;6.57;;
12691;SDS011;6410;57.636;18.304;2022-07-17T03:00:01;6.60;;;6.30;;
12691;SDS011;6410;57.636;18.304;2022-07-17T03:02:30;7.20;;;6.90;;
12691;SDS011;6410;57.636;18.304;2022-07-17T03:04:59;7.18;;;6.97;;
12691;SDS011;6410;57.636;18.304;2022-07-17T03:07:29;7.40;;;7.20;;
12691;SDS011;6410;57.636;18.304;2022-07-17T03:09:57;8.10;;;7.80;;
12691;SDS011;6410;57.636;18.304;2022-07-17T03:12:26;8.68;;;8.38;;
12691;SDS011;6410;57.636;18.304;2022-07-17T03:14:54;8.18;;;7.88;;
12691;SDS011;6410;57.636;18.304;2022-07-17T03:17:23;8.40;;;8.10;;
12691;SDS011;6410;57.636;18.304;2022-07-17T03:19:51;7.38;;;7.18;;
12691;SDS011;6410;57.636;18.304;2022-07-17T03:22:20;7.90;;;7.60;;
12691;SDS011;6410;57.636;18.304;2022-07-17T03:24:50;8.82;;;8.43;;
12691;SDS011;6410;57.636;18.304;2022-07-17T03:27:19;8.27;;;7.97;;
12691;SDS011;6410;57.636;18.304;2022-07-17T03:29:47;8.38;;;8.07;;
12691;SDS011;6410;57.636;18.304;2022-07-17T03:32:16;8.50;;;8.20;;
12691;SDS011;6410;57.636;18.304;2022-07-17T03:34:44;8.43;;;8.13;;
12691;SDS011;6410;57.636;18.304;2022-07-17T03:37:13;8.30;;;8.00;;
12691;SDS011;6410;57.636;18.304;2022-07-17T03:39:42;8.80;;;8.50;;
12691;SDS011;6410;57.636;18.304;2022-07-17T03:42:12;8.27;;;7.97;;
12691;SDS011;6410;57.636;18.304;2022-07-17T03:44:40;7.78;;;7.47;;
12691;SDS011;6410;57.636;18.304;2022-07-17T03:47:09;8.02;;;7.72;;
12691;SDS011;6410;57.636;18.304;2022-07-17T03:49:38;7.50;;;7.20;;
12691;SDS011;6410;57.636;18.304;2022-07-17T03:52:06;7.80;;;7.50;;
12691;SDS011;6410;57.636;18.304;2022-07-17T03:54:36;7.75;;;7.45;;
12691;SDS011;6410;57.636;18.304;2022-07-17T03:57:04;7.90;;;7.70;;
12691;SDS011;6410;57.636;18.304;2022-07-17T03:59:34;8.40;;;8.07;;
12691;SDS011;6410;57.636;18.304;2022-07-17T04:02:02;8.32;;;8.02;;
12691;SDS011;6410;57.636;18.304;2022-07-17T04:04:31;8.02;;;7.75;;
12691;SDS011;6410;57.636;18.304;2022-07-17T04:07:00;8.80;;;8.50;;
12691;SDS011;6410;57.636;18.304;2022-07-17T04:09:28;9.43;;;8.85;;
12691;SDS011;6410;57.636;18.304;2022-07-17T04:11:57;9.00;;;8.70;;
12691;SDS011;6410;57.636;18.304;2022-07-17T04:14:25;9.93;;;9.27;;
12691;SDS011;6410;57.636;18.304;2022-07-17T04:16:55;9.30;;;8.90;;
12691;SDS011;6410;57.636;18.304;2022-07-17T04:19:24;9.43;;;9.13;;
12691;SDS011;6410;57.636;18.304;2022-07-17T04:21:52;9.10;;;8.80;;
12691;SDS011;6410;57.636;18.304;2022-07-17T04:24:21;9.18;;;8.88;;
12691;SDS011;6410;57.636;18.304;2022-07-17T04:26:49;9.57;;;9.27;;
12691;SDS011;6410;57.636;18.304;2022-07-17T04:29:18;9.43;;;9.13;;
12691;SDS011;6410;57.636;18.304;2022-07-17T04:31:46;8.82;;;8.52;;
12691;SDS011;6410;57.636;18.304;2022-07-17T04:34:17;9.02;;;8.73;;
12691;SDS011;6410;57.636;18.304;2022-07-17T04:36:46;9.38;;;9.07;;
12691;SDS011;6410;57.636;18.304;2022-07-17T04:39:14;9.52;;;9.23;;
12691;SDS011;6410;57.636;18.304;2022-07-17T04:41:43;9.90;;;9.60;;
12691;SDS011;6410;57.636;18.304;2022-07-17T04:44:12;10.18;;;9.85;;
12691;SDS011;6410;57.636;18.304;2022-07-17T04:46:40;9.73;;;9.43;;
12691;SDS011;6410;57.636;18.304;2022-07-17T04:49:09;9.98;;;9.68;;
12691;SDS011;6410;57.636;18.304;2022-07-17T04:51:39;9.80;;;9.50;;
12691;SDS011;6410;57.636;18.304;2022-07-17T04:54:09;10.65;;;10.25;;
12691;SDS011;6410;57.636;18.304;2022-07-17T04:56:37;10.98;;;10.57;;
12691;SDS011;6410;57.636;18.304;2022-07-17T04:59:06;10.30;;;9.90;;
12691;SDS011;6410;57.636;18.304;2022-07-17T05:01:35;10.40;;;10.00;;
12691;SDS011;6410;57.636;18.304;2022-07-17T05:04:03;9.40;;;9.10;;
12691;SDS011;6410;57.636;18.304;2022-07-17T05:06:32;9.68;;;9.38;;
12691;SDS011;6410;57.636;18.304;2022-07-17T05:09:02;9.50;;;9.10;;
12691;SDS011;6410;57.636;18.304;2022-07-17T05:11:30;9.02;;;8.73;;
12691;SDS011;6410;57.636;18.304;2022-07-17T05:13:59;8.73;;;8.43;;
12691;SDS011;6410;57.636;18.304;2022-07-17T05:16:31;9.20;;;8.90;;
12691;SDS011;6410;57.636;18.304;2022-07-17T05:19:00;9.00;;;8.70;;
12691;SDS011;6410;57.636;18.304;2022-07-17T05:21:28;9.13;;;8.82;;
12691;SDS011;6410;57.636;18.304;2022-07-17T05:23:57;9.25;;;8.95;;
12691;SDS011;6410;57.636;18.304;2022-07-17T05:26:27;8.70;;;8.40;;
12691;SDS011;6410;57.636;18.304;2022-07-17T05:28:55;8.80;;;8.50;;
12691;SDS011;6410;57.636;18.304;2022-07-17T05:31:24;8.75;;;8.45;;
12691;SDS011;6410;57.636;18.304;2022-07-17T05:33:53;8.70;;;8.40;;
12691;SDS011;6410;57.636;18.304;2022-07-17T05:36:22;8.02;;;7.72;;
12691;SDS011;6410;57.636;18.304;2022-07-17T05:38:51;8.45;;;8.15;;
12691;SDS011;6410;57.636;18.304;2022-07-17T05:41:19;8.77;;;8.48;;
12691;SDS011;6410;57.636;18.304;2022-07-17T05:43:49;8.38;;;8.05;;
12691;SDS011;6410;57.636;18.304;2022-07-17T05:46:18;8.85;;;8.55;;
12691;SDS011;6410;57.636;18.304;2022-07-17T05:48:46;8.82;;;8.52;;
12691;SDS011;6410;57.636;18.304;2022-07-17T05:51:15;9.57;;;9.18;;
12691;SDS011;6410;57.636;18.304;2022-07-17T05:53:50;9.40;;;9.10;;
12691;SDS011;6410;57.636;18.304;2022-07-17T05:56:18;8.35;;;8.05;;
12691;SDS011;6410;57.636;18.304;2022-07-17T05:58:47;7.65;;;7.38;;
12691;SDS011;6410;57.636;18.304;2022-07-17T06:01:17;7.60;;;7.30;;
12691;SDS011;6410;57.636;18.304;2022-07-17T06:03:45;7.63;;;7.32;;
12691;SDS011;6410;57.636;18.304;2022-07-17T06:06:14;8.05;;;7.65;;
12691;SDS011;6410;57.636;18.304;2022-07-17T06:08:43;7.60;;;7.22;;
12691;SDS011;6410;57.636;18.304;2022-07-17T06:11:12;7.13;;;6.80;;
12691;SDS011;6410;57.636;18.304;2022-07-17T06:13:40;7.40;;;7.20;;
12691;SDS011;6410;57.636;18.304;2022-07-17T06:16:09;7.68;;;7.38;;
12691;SDS011;6410;57.636;18.304;2022-07-17T06:18:39;7.85;;;7.10;;
12691;SDS011;6410;57.636;18.304;2022-07-17T06:21:07;7.30;;;7.00;;
12691;SDS011;6410;57.636;18.304;2022-07-17T06:23:36;7.38;;;7.07;;
12691;SDS011;6410;57.636;18.304;2022-07-17T06:26:04;7.75;;;7.35;;
12691;SDS011;6410;57.636;18.304;2022-07-17T06:28:33;7.70;;;7.40;;
12691;SDS011;6410;57.636;18.304;2022-07-17T06:31:02;7.45;;;7.15;;
12691;SDS011;6410;57.636;18.304;2022-07-17T06:33:30;7.10;;;6.90;;
12691;SDS011;6410;57.636;18.304;2022-07-17T06:36:00;7.28;;;6.88;;
12691;SDS011;6410;57.636;18.304;2022-07-17T06:38:29;6.70;;;6.50;;
12691;SDS011;6410;57.636;18.304;2022-07-17T06:40:57;6.63;;;6.18;;
12691;SDS011;6410;57.636;18.304;2022-07-17T06:43:26;6.00;;;5.80;;
12691;SDS011;6410;57.636;18.304;2022-07-17T06:45:54;6.30;;;6.10;;
12691;SDS011;6410;57.636;18.304;2022-07-17T06:48:23;6.13;;;5.93;;
12691;SDS011;6410;57.636;18.304;2022-07-17T06:50:51;6.40;;;6.10;;
12691;SDS011;6410;57.636;18.304;2022-07-17T06:53:21;6.00;;;5.80;;
12691;SDS011;6410;57.636;18.304;2022-07-17T06:55:50;6.15;;;5.95;;
12691;SDS011;6410;57.636;18.304;2022-07-17T06:58:18;6.00;;;5.80;;
12691;SDS011;6410;57.636;18.304;2022-07-17T07:00:47;5.88;;;5.68;;
12691;SDS011;6410;57.636;18.304;2022-07-17T07:03:15;6.25;;;6.05;;
12691;SDS011;6410;57.636;18.304;2022-07-17T07:05:44;6.13;;;5.93;;
12691;SDS011;6410;57.636;18.304;2022-07-17T07:08:12;7.15;;;6.85;;
12691;SDS011;6410;57.636;18.304;2022-07-17T07:10:42;6.20;;;6.00;;
12691;SDS011;6410;57.636;18.304;2022-07-17T07:13:11;6.50;;;6.20;;
12691;SDS011;6410;57.636;18.304;2022-07-17T07:15:40;6.15;;;5.85;;
12691;SDS011;6410;57.636;18.304;2022-07-17T07:18:09;6.10;;;5.80;;
12691;SDS011;6410;57.636;18.304;2022-07-17T07:20:37;6.13;;;5.93;;
12691;SDS011;6410;57.636;18.304;2022-07-17T07:23:06;6.65;;;6.35;;
12691;SDS011;6410;57.636;18.304;2022-07-17T07:25:34;5.80;;;5.60;;
12691;SDS011;6410;57.636;18.304;2022-07-17T07:28:05;6.15;;;5.85;;
12691;SDS011;6410;57.636;18.304;2022-07-17T07:30:33;6.18;;;5.97;;
12691;SDS011;6410;57.636;18.304;2022-07-17T07:33:02;5.95;;;5.75;;
12691;SDS011;6410;57.636;18.304;2022-07-17T07:35:31;5.80;;;5.60;;
12691;SDS011;6410;57.636;18.304;2022-07-17T07:37:59;5.88;;;5.68;;
12691;SDS011;6410;57.636;18.304;2022-07-17T07:40:28;5.70;;;5.50;;
12691;SDS011;6410;57.636;18.304;2022-07-17T07:42:57;6.32;;;6.03;;
12691;SDS011;6410;57.636;18.304;2022-07-17T07:45:27;6.13;;;5.88;;
12691;SDS011;6410;57.636;18.304;2022-07-17T07:47:57;6.05;;;5.82;;
12691;SDS011;6410;57.636;18.304;2022-07-17T07:50:26;6.20;;;6.00;;
12691;SDS011;6410;57.636;18.304;2022-07-17T07:52:55;6.00;;;5.80;;
12691;SDS011;6410;57.636;18.304;2022-07-17T07:55:24;5.70;;;5.50;;
12691;SDS011;6410;57.636;18.304;2022-07-17T07:58:00;5.97;;;5.78;;
12691;SDS011;6410;57.636;18.304;2022-07-17T08:00:30;6.20;;;6.00;;
12691;SDS011;6410;57.636;18.304;2022-07-17T08:02:59;6.45;;;6.15;;
12691;SDS011;6410;57.636;18.304;2022-07-17T08:05:28;6.25;;;6.05;;
12691;SDS011;6410;57.636;18.304;2022-07-17T08:07:57;6.00;;;5.80;;
12691;SDS011;6410;57.636;18.304;2022-07-17T08:10:26;7.03;;;6.72;;
12691;SDS011;6410;57.636;18.304;2022-07-17T08:12:55;6.85;;;6.65;;
12691;SDS011;6410;57.636;18.304;2022-07-17T08:15:23;6.68;;;6.47;;
12691;SDS011;6410;57.636;18.304;2022-07-17T08:17:53;6.70;;;6.50;;
12691;SDS011;6410;57.636;18.304;2022-07-17T08:20:22;6.70;;;6.50;;
12691;SDS011;6410;57.636;18.304;2022-07-17T08:22:51;7.53;;;7.22;;
12691;SDS011;6410;57.636;18.304;2022-07-17T08:25:35;7.20;;;7.00;;
12691;SDS011;6410;57.636;18.304;2022-07-17T08:28:04;6.70;;;6.50;;
12691;SDS011;6410;57.636;18.304;2022-07-17T08:30:32;7.45;;;7.15;;
12691;SDS011;6410;57.636;18.304;2022-07-17T08:33:04;7.45;;;7.15;;
12691;SDS011;6410;57.636;18.304;2022-07-17T08:35:33;7.10;;;6.80;;
12691;SDS011;6410;57.636;18.304;2022-07-17T08:38:02;6.80;;;6.60;;
12691;SDS011;6410;57.636;18.304;2022-07-17T08:40:32;7.00;;;6.55;;
12691;SDS011;6410;57.636;18.304;2022-07-17T08:43:05;6.90;;;6.60;;
12691;SDS011;6410;57.636;18.304;2022-07-17T08:45:34;6.40;;;6.20;;
12691;SDS011;6410;57.636;18.304;2022-07-17T08:48:13;6.72;;;6.50;;
12691;SDS011;6410;57.636;18.304;2022-07-17T08:50:42;6.70;;;6.50;;
12691;SDS011;6410;57.636;18.304;2022-07-17T08:53:11;6.93;;;6.63;;
12691;SDS011;6410;57.636;18.304;2022-07-17T08:55:39;6.45;;;6.25;;
12691;SDS011;6410;57.636;18.304;2022-07-17T08:58:13;6.40;;;6.20;;
12691;SDS011;6410;57.636;18.304;2022-07-17T09:00:42;6.13;;;5.93;;
12691;SDS011;6410;57.636;18.304;2022-07-17T09:03:14;7.18;;;6.75;;
12691;SDS011;6410;57.636;18.304;2022-07-17T09:05:44;6.80;;;6.40;;
12691;SDS011;6410;57.636;18.304;2022-07-17T09:08:16;6.95;;;6.70;;
12691;SDS011;6410;57.636;18.304;2022-07-17T09:10:46;7.15;;;6.90;;
12691;SDS011;6410;57.636;18.304;2022-07-17T09:13:18;7.28;;;7.00;;
12691;SDS011;6410;57.636;18.304;2022-07-17T09:15:49;6.97;;;6.78;;
12691;SDS011;6410;57.636;18.304;2022-07-17T09:18:19;6.70;;;6.50;;
12691;SDS011;6410;57.636;18.304;2022-07-17T09:20:48;7.13;;;6.93;;
12691;SDS011;6410;57.636;18.304;2022-07-17T09:23:17;6.63;;;6.32;;
12691;SDS011;6410;57.636;18.304;2022-07-17T09:25:47;6.50;;;6.30;;
12691;SDS011;6410;57.636;18.304;2022-07-17T09:28:17;6.85;;;6.50;;
12691;SDS011;6410;57.636;18.304;2022-07-17T09:30:49;6.90;;;6.60;;
12691;SDS011;6410;57.636;18.304;2022-07-17T09:33:20;6.65;;;6.30;;
12691;SDS011;6410;57.636;18.304;2022-07-17T09:35:50;6.40;;;6.20;;
12691;SDS011;6410;57.636;18.304;2022-07-17T09:38:25;6.57;;;6.32;;
12691;SDS011;6410;57.636;18.304;2022-07-17T09:41:01;6.65;;;6.30;;
12691;SDS011;6410;57.636;18.304;2022-07-17T09:43:41;6.18;;;5.97;;
12691;SDS011;6410;57.636;18.304;2022-07-17T09:46:13;6.47;;;6.28;;
12691;SDS011;6410;57.636;18.304;2022-07-17T09:48:43;6.28;;;6.07;;
12691;SDS011;6410;57.636;18.304;2022-07-17T09:51:19;6.47;;;6.18;;
12691;SDS011;6410;57.636;18.304;2022-07-17T09:53:48;6.30;;;6.00;;
12691;SDS011;6410;57.636;18.304;2022-07-17T09:56:18;6.40;;;6.10;;
12691;SDS011;6410;57.636;18.304;2022-07-17T09:58:48;6.40;;;6.20;;
12691;SDS011;6410;57.636;18.304;2022-07-17T10:01:17;6.68;;;6.38;;
12691;SDS011;6410;57.636;18.304;2022-07-17T10:03:47;6.70;;;6.50;;
12691;SDS011;6410;57.636;18.304;2022-07-17T10:06:19;7.60;;;7.30;;
12691;SDS011;6410;57.636;18.304;2022-07-17T10:08:48;7.47;;;7.18;;
12691;SDS011;6410;57.636;18.304;2022-07-17T10:11:17;6.47;;;6.28;;
12691;SDS011;6410;57.636;18.304;2022-07-17T10:13:47;6.95;;;6.75;;
12691;SDS011;6410;57.636;18.304;2022-07-17T10:16:22;7.20;;;7.00;;
12691;SDS011;6410;57.636;18.304;2022-07-17T10:18:54;7.15;;;6.85;;
12691;SDS011;6410;57.636;18.304;2022-07-17T10:21:25;6.97;;;6.75;;
12691;SDS011;6410;57.636;18.304;2022-07-17T10:24:06;7.28;;;6.97;;
12691;SDS011;6410;57.636;18.304;2022-07-17T10:26:40;7.28;;;6.95;;
12691;SDS011;6410;57.636;18.304;2022-07-17T10:29:25;6.90;;;6.70;;
12691;SDS011;6410;57.636;18.304;2022-07-17T10:31:54;7.00;;;6.68;;
12691;SDS011;6410;57.636;18.304;2022-07-17T10:34:36;6.82;;;6.63;;
12691;SDS011;6410;57.636;18.304;2022-07-17T10:37:19;6.30;;;6.10;;
12691;SDS011;6410;57.636;18.304;2022-07-17T10:39:54;6.40;;;6.20;;
12691;SDS011;6410;57.636;18.304;2022-07-17T10:42:39;6.10;;;5.90;;
12691;SDS011;6410;57.636;18.304;2022-07-17T10:45:09;6.20;;;6.00;;
12691;SDS011;6410;57.636;18.304;2022-07-17T10:47:45;6.15;;;5.85;;
12691;SDS011;6410;57.636;18.304;2022-07-17T10:50:16;5.97;;;5.78;;
12691;SDS011;6410;57.636;18.304;2022-07-17T10:52:55;6.15;;;5.85;;
12691;SDS011;6410;57.636;18.304;2022-07-17T10:55:24;6.43;;;6.13;;
12691;SDS011;6410;57.636;18.304;2022-07-17T10:57:52;6.20;;;6.00;;
12691;SDS011;6410;57.636;18.304;2022-07-17T11:00:22;8.27;;;7.88;;
12691;SDS011;6410;57.636;18.304;2022-07-17T11:02:50;5.88;;;5.68;;
12691;SDS011;6410;57.636;18.304;2022-07-17T11:05:21;5.70;;;5.50;;
12691;SDS011;6410;57.636;18.304;2022-07-17T11:07:50;5.40;;;5.20;;
12691;SDS011;6410;57.636;18.304;2022-07-17T11:10:19;5.15;;;4.95;;
12691;SDS011;6410;57.636;18.304;2022-07-17T11:12:48;5.47;;;5.10;;
12691;SDS011;6410;57.636;18.304;2022-07-17T11:15:18;4.90;;;4.70;;
12691;SDS011;6410;57.636;18.304;2022-07-17T11:17:48;4.57;;;4.35;;
12691;SDS011;6410;57.636;18.304;2022-07-17T11:20:17;4.95;;;4.65;;
12691;SDS011;6410;57.636;18.304;2022-07-17T11:22:56;4.80;;;4.60;;
12691;SDS011;6410;57.636;18.304;2022-07-17T11:25:27;4.75;;;4.45;;
12691;SDS011;6410;57.636;18.304;2022-07-17T11:27:55;4.72;;;4.53;;
12691;SDS011;6410;57.636;18.304;2022-07-17T11:30:24;5.13;;;4.72;;
12691;SDS011;6410;57.636;18.304;2022-07-17T11:33:00;4.90;;;4.60;;
12691;SDS011;6410;57.636;18.304;2022-07-17T11:35:33;4.65;;;4.43;;
12691;SDS011;6410;57.636;18.304;2022-07-17T11:38:10;4.25;;;4.05;;
12691;SDS011;6410;57.636;18.304;2022-07-17T11:40:50;4.10;;;3.80;;
12691;SDS011;6410;57.636;18.304;2022-07-17T11:43:27;3.85;;;3.50;;
12691;SDS011;6410;57.636;18.304;2022-07-17T11:45:56;3.45;;;3.25;;
12691;SDS011;6410;57.636;18.304;2022-07-17T11:48:25;3.10;;;3.00;;
12691;SDS011;6410;57.636;18.304;2022-07-17T11:50:54;4.10;;;3.78;;
12691;SDS011;6410;57.636;18.304;2022-07-17T11:53:35;3.97;;;3.83;;
12691;SDS011;6410;57.636;18.304;2022-07-17T11:56:04;4.60;;;4.40;;
12691;SDS011;6410;57.636;18.304;2022-07-17T11:58:42;4.60;;;4.40;;
12691;SDS011;6410;57.636;18.304;2022-07-17T12:01:12;5.00;;;4.65;;
12691;SDS011;6410;57.636;18.304;2022-07-17T12:03:42;4.60;;;4.40;;
12691;SDS011;6410;57.636;18.304;2022-07-17T12:06:11;5.10;;;4.90;;
12691;SDS011;6410;57.636;18.304;2022-07-17T12:08:49;5.10;;;4.80;;
12691;SDS011;6410;57.636;18.304;2022-07-17T12:11:19;4.90;;;4.70;;
12691;SDS011;6410;57.636;18.304;2022-07-17T12:13:47;4.28;;;4.18;;
12691;SDS011;6410;57.636;18.304;2022-07-17T12:19:05;4.40;;;4.30;;
12691;SDS011;6410;57.636;18.304;2022-07-17T12:21:49;4.35;;;4.25;;
12691;SDS011;6410;57.636;18.304;2022-07-17T12:24:20;7.43;;;6.95;;
12691;SDS011;6410;57.636;18.304;2022-07-17T12:26:48;4.80;;;4.50;;
12691;SDS011;6410;57.636;18.304;2022-07-17T12:29:18;4.57;;;4.38;;
12691;SDS011;6410;57.636;18.304;2022-07-17T12:31:47;4.72;;;4.50;;
12691;SDS011;6410;57.636;18.304;2022-07-17T12:34:15;4.80;;;4.60;;
12691;SDS011;6410;57.636;18.304;2022-07-17T12:36:52;5.05;;;4.75;;
12691;SDS011;6410;57.636;18.304;2022-07-17T12:42:36;5.30;;;5.10;;
12691;SDS011;6410;57.636;18.304;2022-07-17T12:45:15;4.80;;;4.60;;
12691;SDS011;6410;57.636;18.304;2022-07-17T12:47:55;5.40;;;5.10;;
12691;SDS011;6410;57.636;18.304;2022-07-17T12:50:32;5.60;;;5.40;;
12691;SDS011;6410;57.636;18.304;2022-07-17T12:53:03;5.85;;;5.65;;
12691;SDS011;6410;57.636;18.304;2022-07-17T12:55:44;5.93;;;5.72;;
12691;SDS011;6410;57.636;18.304;2022-07-17T12:58:20;5.72;;;5.53;;
12691;SDS011;6410;57.636;18.304;2022-07-17T13:00:56;6.35;;;6.13;;
12691;SDS011;6410;57.636;18.304;2022-07-17T13:03:27;5.93;;;5.72;;
12691;SDS011;6410;57.636;18.304;2022-07-17T13:05:59;6.25;;;5.90;;
12691;SDS011;6410;57.636;18.304;2022-07-17T13:08:28;6.10;;;5.80;;
12691;SDS011;6410;57.636;18.304;2022-07-17T13:10:57;5.72;;;5.53;;
12691;SDS011;6410;57.636;18.304;2022-07-17T13:13:27;6.63;;;6.32;;
12691;SDS011;6410;57.636;18.304;2022-07-17T13:15:56;6.80;;;6.50;;
12691;SDS011;6410;57.636;18.304;2022-07-17T13:18:25;6.80;;;6.50;;
12691;SDS011;6410;57.636;18.304;2022-07-17T13:20:54;6.32;;;6.00;;
12691;SDS011;6410;57.636;18.304;2022-07-17T13:23:27;6.50;;;6.10;;
12691;SDS011;6410;57.636;18.304;2022-07-17T13:25:56;6.20;;;5.90;;
12691;SDS011;6410;57.636;18.304;2022-07-17T13:28:25;6.28;;;5.85;;
12691;SDS011;6410;57.636;18.304;2022-07-17T13:30:55;5.80;;;5.50;;
12691;SDS011;6410;57.636;18.304;2022-07-17T13:33:24;6.25;;;5.85;;
12691;SDS011;6410;57.636;18.304;2022-07-17T13:35:52;6.03;;;5.78;;
12691;SDS011;6410;57.636;18.304;2022-07-17T13:38:21;6.15;;;5.75;;
12691;SDS011;6410;57.636;18.304;2022-07-17T13:40:51;5.63;;;5.43;;
12691;SDS011;6410;57.636;18.304;2022-07-17T13:43:19;5.60;;;5.10;;
12691;SDS011;6410;57.636;18.304;2022-07-17T13:45:48;5.40;;;5.20;;
12691;SDS011;6410;57.636;18.304;2022-07-17T13:48:18;4.60;;;4.30;;
12691;SDS011;6410;57.636;18.304;2022-07-17T13:50:47;4.95;;;4.63;;
12691;SDS011;6410;57.636;18.304;2022-07-17T13:53:16;5.65;;;5.45;;
12691;SDS011;6410;57.636;18.304;2022-07-17T13:55:44;5.78;;;5.47;;
12691;SDS011;6410;57.636;18.304;2022-07-17T13:58:17;6.20;;;5.80;;
12691;SDS011;6410;57.636;18.304;2022-07-17T14:00:46;6.00;;;5.70;;
12691;SDS011;6410;57.636;18.304;2022-07-17T14:03:15;6.22;;;5.82;;
12691;SDS011;6410;57.636;18.304;2022-07-17T14:05:45;5.90;;;5.40;;
12691;SDS011;6410;57.636;18.304;2022-07-17T14:08:13;6.30;;;5.75;;
12691;SDS011;6410;57.636;18.304;2022-07-17T14:10:42;5.60;;;5.30;;
12691;SDS011;6410;57.636;18.304;2022-07-17T14:13:11;5.55;;;5.18;;
12691;SDS011;6410;57.636;18.304;2022-07-17T14:15:39;5.43;;;5.20;;
12691;SDS011;6410;57.636;18.304;2022-07-17T14:18:08;5.82;;;5.57;;
12691;SDS011;6410;57.636;18.304;2022-07-17T14:20:37;5.93;;;5.63;;
12691;SDS011;6410;57.636;18.304;2022-07-17T14:23:10;5.88;;;5.57;;
12691;SDS011;6410;57.636;18.304;2022-07-17T14:25:39;5.50;;;5.20;;
12691;SDS011;6410;57.636;18.304;2022-07-17T14:28:09;5.70;;;5.40;;
12691;SDS011;6410;57.636;18.304;2022-07-17T14:30:37;5.55;;;5.28;;
12691;SDS011;6410;57.636;18.304;2022-07-17T14:33:06;5.90;;;5.35;;
12691;SDS011;6410;57.636;18.304;2022-07-17T14:35:35;5.70;;;5.30;;
12691;SDS011;6410;57.636;18.304;2022-07-17T14:38:04;5.47;;;5.18;;
12691;SDS011;6410;57.636;18.304;2022-07-17T14:40:35;5.75;;;5.40;;
12691;SDS011;6410;57.636;18.304;2022-07-17T14:43:03;5.68;;;5.28;;
12691;SDS011;6410;57.636;18.304;2022-07-17T14:45:32;5.57;;;5.20;;
12691;SDS011;6410;57.636;18.304;2022-07-17T14:48:00;5.63;;;5.22;;
12691;SDS011;6410;57.636;18.304;2022-07-17T14:50:29;6.43;;;6.00;;
12691;SDS011;6410;57.636;18.304;2022-07-17T14:52:58;5.80;;;5.20;;
12691;SDS011;6410;57.636;18.304;2022-07-17T14:55:26;6.07;;;5.32;;
12691;SDS011;6410;57.636;18.304;2022-07-17T14:57:56;5.88;;;4.65;;
12691;SDS011;6410;57.636;18.304;2022-07-17T15:00:25;5.47;;;4.85;;
12691;SDS011;6410;57.636;18.304;2022-07-17T15:02:54;5.80;;;5.30;;
12691;SDS011;6410;57.636;18.304;2022-07-17T15:05:22;5.60;;;5.20;;
12691;SDS011;6410;57.636;18.304;2022-07-17T15:07:51;5.35;;;5.05;;
12691;SDS011;6410;57.636;18.304;2022-07-17T15:10:19;5.28;;;4.90;;